Time;durP1;ratioP1;P1;durP2;ratioP2;P2;SDS_P1;SDS_P2;PMS_P1;PMS_P2;Temp;Humidity;BMP_temperature;BMP_pressure;BME280_temperature;BME280_humidity;BME280_pressure;Samples;Min_cycle;Max_cycle;Signal;HPM_P1;HPM_P2
2022/04/15 00:00:32;;;;;;;13.90;7.15;;;;;;;;;;5053411;28;20045;-84
2022/04/15 00:03:19;;;;;;;16.30;8.45;;;;;;;;;;5053004;28;20037;-85
2022/04/15 00:06:08;;;;;;;17.17;8.02;;;;;;;;;;5052989;28;20048;-84
2022/04/15 00:08:54;;;;;;;16.85;8.95;;;;;;;;;;5053079;28;20478;-84
2022/04/15 00:11:40;;;;;;;19.73;9.30;;;;;;;;;;5053227;28;20037;-84
2022/04/15 00:14:25;;;;;;;25.23;10.93;;;;;;;;;;5052814;28;20048;-84
2022/04/15 00:17:11;;;;;;;21.20;8.65;;;;;;;;;;5062771;28;20041;-84
2022/04/15 00:19:56;;;;;;;16.52;8.20;;;;;;;;;;5056183;28;20045;-84
2022/04/15 00:22:42;;;;;;;19.13;8.25;;;;;;;;;;5056639;28;20049;-84
2022/04/15 00:25:27;;;;;;;17.48;8.35;;;;;;;;;;5056376;28;20041;-83
2022/04/15 00:28:13;;;;;;;19.20;9.75;;;;;;;;;;5056101;28;20049;-83
2022/04/15 00:30:59;;;;;;;17.05;8.13;;;;;;;;;;5056357;28;20045;-83
2022/04/15 00:33:44;;;;;;;11.63;6.40;;;;;;;;;;5056229;28;20041;-82
2022/04/15 00:36:29;;;;;;;13.20;6.80;;;;;;;;;;5056151;28;20045;-84
2022/04/15 00:39:14;;;;;;;14.70;6.75;;;;;;;;;;5056279;28;20037;-83
2022/04/15 00:42:00;;;;;;;13.65;6.53;;;;;;;;;;5056060;28;20041;-84
2022/04/15 00:44:46;;;;;;;14.63;6.40;;;;;;;;;;5056159;28;20045;-84
2022/04/15 00:47:54;;;;;;;16.38;6.25;;;;;;;;;;5056654;28;20045;-84
2022/04/15 00:50:40;;;;;;;13.55;5.18;;;;;;;;;;5056630;28;20052;-84
2022/04/15 00:53:28;;;;;;;12.15;5.22;;;;;;;;;;5055892;28;20057;-83
2022/04/15 00:56:16;;;;;;;15.65;6.63;;;;;;;;;;5062537;28;20049;-83
2022/04/15 00:59:02;;;;;;;15.10;6.45;;;;;;;;;;5056701;28;20048;-83
2022/04/15 01:01:48;;;;;;;13.10;5.90;;;;;;;;;;5057119;28;20044;-83
2022/04/15 01:04:34;;;;;;;11.75;5.55;;;;;;;;;;5055645;28;20041;-83
2022/04/15 01:07:22;;;;;;;9.68;5.25;;;;;;;;;;5055796;28;20045;-84
2022/04/15 01:10:11;;;;;;;10.73;5.50;;;;;;;;;;5055741;28;20471;-84
2022/04/15 01:12:58;;;;;;;12.00;6.22;;;;;;;;;;5055404;28;20045;-83
2022/04/15 01:15:43;;;;;;;16.02;5.95;;;;;;;;;;5055442;28;20045;-83
2022/04/15 01:18:28;;;;;;;18.00;6.50;;;;;;;;;;5055618;28;20045;-83
2022/04/15 01:21:16;;;;;;;13.52;5.90;;;;;;;;;;5055691;28;20045;-83
2022/04/15 01:24:01;;;;;;;12.80;5.25;;;;;;;;;;5055173;28;20045;-83
2022/04/15 01:26:47;;;;;;;18.30;6.63;;;;;;;;;;5054721;28;20386;-83
2022/04/15 01:29:40;;;;;;;17.83;7.10;;;;;;;;;;5055180;28;20052;-83
2022/04/15 01:32:26;;;;;;;16.20;6.82;;;;;;;;;;5055302;28;20037;-83
2022/04/15 01:35:14;;;;;;;14.15;6.45;;;;;;;;;;5055152;28;20474;-83
2022/04/15 01:38:00;;;;;;;12.70;5.28;;;;;;;;;;5054286;28;20041;-83
2022/04/15 01:40:46;;;;;;;21.90;7.53;;;;;;;;;;5055034;28;20053;-82
2022/04/15 01:43:30;;;;;;;17.10;7.50;;;;;;;;;;5054868;28;20037;-84
2022/04/15 01:46:16;;;;;;;22.02;7.43;;;;;;;;;;5054720;28;20045;-83
2022/04/15 01:49:02;;;;;;;17.10;6.05;;;;;;;;;;5054802;28;20041;-84
2022/04/15 01:51:48;;;;;;;14.73;6.35;;;;;;;;;;5061362;28;20041;-84
2022/04/15 01:54:33;;;;;;;13.88;6.82;;;;;;;;;;5054668;28;20041;-83
2022/04/15 01:57:18;;;;;;;14.73;5.93;;;;;;;;;;5054886;28;20045;-83
2022/04/15 02:00:04;;;;;;;12.82;5.85;;;;;;;;;;5054542;28;20045;-83
2022/04/15 02:02:57;;;;;;;12.13;5.32;;;;;;;;;;5054148;28;20041;-83
2022/04/15 02:05:42;;;;;;;7.53;4.75;;;;;;;;;;5074606;28;20041;-83
2022/04/15 02:08:28;;;;;;;7.70;4.18;;;;;;;;;;5076098;28;20037;-84
2022/04/15 02:11:14;;;;;;;8.63;4.57;;;;;;;;;;5064294;28;20406;-84
2022/04/15 02:13:59;;;;;;;9.38;4.70;;;;;;;;;;5054279;28;20052;-84
2022/04/15 02:16:46;;;;;;;9.93;4.90;;;;;;;;;;5054245;28;20399;-84
2022/04/15 02:19:31;;;;;;;7.75;4.78;;;;;;;;;;5054427;28;20045;-84
2022/04/15 02:22:17;;;;;;;6.00;3.63;;;;;;;;;;5054310;28;20037;-84
2022/04/15 02:25:03;;;;;;;9.68;4.03;;;;;;;;;;5054068;28;20398;-82
2022/04/15 02:27:50;;;;;;;7.50;4.75;;;;;;;;;;5053816;28;20033;-84
2022/04/15 02:30:35;;;;;;;12.80;6.10;;;;;;;;;;5053735;28;20037;-84
2022/04/15 02:33:20;;;;;;;16.92;6.43;;;;;;;;;;5054279;28;20037;-84
2022/04/15 02:36:06;;;;;;;14.07;7.05;;;;;;;;;;5053674;28;20044;-84
2022/04/15 02:38:51;;;;;;;11.10;5.50;;;;;;;;;;5054144;28;20398;-84
2022/04/15 02:41:38;;;;;;;16.23;5.88;;;;;;;;;;5053847;28;20037;-85
2022/04/15 02:44:24;;;;;;;11.90;5.45;;;;;;;;;;5053690;28;20490;-84
2022/04/15 02:47:09;;;;;;;12.43;5.45;;;;;;;;;;5053887;28;20045;-84
2022/04/15 02:49:55;;;;;;;13.02;5.70;;;;;;;;;;5053953;28;20037;-84
2022/04/15 02:52:41;;;;;;;12.77;6.40;;;;;;;;;;5053779;28;20049;-84
2022/04/15 02:55:26;;;;;;;16.30;6.43;;;;;;;;;;5053643;28;20044;-84
2022/04/15 02:58:11;;;;;;;15.50;6.80;;;;;;;;;;5053699;28;20041;-84
2022/04/15 03:00:57;;;;;;;18.13;6.95;;;;;;;;;;5052884;28;20497;-84
2022/04/15 03:03:42;;;;;;;13.20;6.32;;;;;;;;;;5060125;28;20040;-84
2022/04/15 03:06:28;;;;;;;12.20;5.55;;;;;;;;;;5053784;28;20049;-84
2022/04/15 03:09:13;;;;;;;11.60;5.78;;;;;;;;;;5053488;28;20041;-84
2022/04/15 03:11:59;;;;;;;9.30;4.78;;;;;;;;;;5053326;28;20045;-84
2022/04/15 03:14:44;;;;;;;9.00;5.25;;;;;;;;;;5053508;28;20394;-84
2022/04/15 03:17:30;;;;;;;8.98;5.03;;;;;;;;;;5053942;28;20037;-82
2022/04/15 03:20:16;;;;;;;14.05;5.53;;;;;;;;;;5052777;28;20041;-84
2022/04/15 03:23:01;;;;;;;11.02;5.63;;;;;;;;;;5053582;28;20078;-84
2022/04/15 03:25:47;;;;;;;14.20;6.80;;;;;;;;;;5053411;28;20041;-83
2022/04/15 03:28:33;;;;;;;11.60;5.95;;;;;;;;;;5052992;28;20041;-83
2022/04/15 03:31:18;;;;;;;10.00;5.35;;;;;;;;;;5053295;28;20049;-83
2022/04/15 03:34:04;;;;;;;10.57;5.60;;;;;;;;;;5053166;28;20041;-83
2022/04/15 03:36:49;;;;;;;8.98;5.22;;;;;;;;;;5053226;28;20049;-83
2022/04/15 03:39:35;;;;;;;10.07;5.85;;;;;;;;;;5052865;28;20386;-83
2022/04/15 03:42:21;;;;;;;11.23;6.00;;;;;;;;;;5052737;28;20049;-84
2022/04/15 03:45:07;;;;;;;16.77;7.10;;;;;;;;;;5053020;28;20053;-84
2022/04/15 03:47:56;;;;;;;15.38;6.90;;;;;;;;;;5052952;28;20422;-84
2022/04/15 03:50:40;;;;;;;15.68;7.28;;;;;;;;;;5059735;28;20041;-84
2022/04/15 03:53:25;;;;;;;15.60;8.60;;;;;;;;;;5056787;28;20394;-84
2022/04/15 03:56:11;;;;;;;18.98;8.68;;;;;;;;;;5056433;28;20041;-85
2022/04/15 03:58:56;;;;;;;15.88;7.93;;;;;;;;;;5057051;28;20053;-83
2022/04/15 04:01:42;;;;;;;15.70;8.38;;;;;;;;;;5056700;28;20041;-83
2022/04/15 04:04:27;;;;;;;16.73;8.82;;;;;;;;;;5056365;28;20402;-84
2022/04/15 04:07:15;;;;;;;20.60;9.20;;;;;;;;;;5056542;28;20045;-83
2022/04/15 04:09:59;;;;;;;23.30;8.93;;;;;;;;;;5055387;28;20049;-85
2022/04/15 04:12:45;;;;;;;22.38;9.93;;;;;;;;;;5062869;28;20041;-84
2022/04/15 04:15:32;;;;;;;19.10;9.98;;;;;;;;;;5056615;28;20401;-84
2022/04/15 04:18:20;;;;;;;24.65;9.43;;;;;;;;;;5071566;28;20041;-84
2022/04/15 04:21:07;;;;;;;15.75;8.85;;;;;;;;;;5078855;28;20053;-84
2022/04/15 04:23:52;;;;;;;19.67;8.48;;;;;;;;;;5071009;28;20482;-84
2022/04/15 04:26:37;;;;;;;23.95;9.02;;;;;;;;;;5056403;28;20049;-84
2022/04/15 04:29:23;;;;;;;19.92;9.57;;;;;;;;;;5056341;28;20044;-84
2022/04/15 04:32:08;;;;;;;28.05;10.93;;;;;;;;;;5056285;28;20482;-84
2022/04/15 04:34:54;;;;;;;31.80;10.45;;;;;;;;;;5056334;28;20486;-84
2022/04/15 04:37:39;;;;;;;22.27;8.75;;;;;;;;;;5055742;28;20041;-84
2022/04/15 04:40:25;;;;;;;22.42;10.38;;;;;;;;;;5055597;28;20049;-84
2022/04/15 04:43:10;;;;;;;20.23;9.40;;;;;;;;;;5055998;28;20044;-84
2022/04/15 04:45:56;;;;;;;19.75;8.30;;;;;;;;;;5056190;28;20045;-84
2022/04/15 04:48:42;;;;;;;23.13;8.82;;;;;;;;;;5055813;28;20041;-85
2022/04/15 04:51:28;;;;;;;31.00;12.13;;;;;;;;;;5055753;28;20049;-83
2022/04/15 04:54:13;;;;;;;34.95;13.73;;;;;;;;;;5055716;28;20426;-83
2022/04/15 04:57:00;;;;;;;34.42;13.13;;;;;;;;;;5055562;28;20056;-81
2022/04/15 04:59:45;;;;;;;28.90;12.73;;;;;;;;;;5055625;28;20045;-84
2022/04/15 05:02:31;;;;;;;33.70;12.77;;;;;;;;;;5054842;28;20033;-85
2022/04/15 05:05:16;;;;;;;37.00;13.07;;;;;;;;;;5062497;28;20040;-84
2022/04/15 05:08:02;;;;;;;37.13;12.80;;;;;;;;;;5055384;28;20053;-84
2022/04/15 05:10:47;;;;;;;40.30;13.73;;;;;;;;;;5061011;28;20494;-84
2022/04/15 05:13:32;;;;;;;39.28;13.45;;;;;;;;;;5055374;28;20041;-85
2022/04/15 05:16:18;;;;;;;34.83;14.55;;;;;;;;;;5055477;28;20044;-84
2022/04/15 05:19:03;;;;;;;45.13;15.38;;;;;;;;;;5054990;28;20048;-85
2022/04/15 05:21:49;;;;;;;41.78;19.20;;;;;;;;;;5055392;28;20033;-84
2022/04/15 05:24:34;;;;;;;50.75;18.20;;;;;;;;;;5055018;28;20045;-85
2022/04/15 05:27:20;;;;;;;51.60;19.95;;;;;;;;;;5054872;28;20045;-85
2022/04/15 05:30:06;;;;;;;58.25;20.58;;;;;;;;;;5055222;28;20478;-84
2022/04/15 05:32:51;;;;;;;47.50;17.52;;;;;;;;;;5054658;28;20036;-85
2022/04/15 05:35:37;;;;;;;45.35;17.10;;;;;;;;;;5055102;28;20099;-84
2022/04/15 05:38:22;;;;;;;39.65;18.33;;;;;;;;;;5055491;28;20041;-84
2022/04/15 05:41:08;;;;;;;42.28;17.52;;;;;;;;;;5054680;28;20402;-85
2022/04/15 05:43:54;;;;;;;36.00;16.40;;;;;;;;;;5067343;28;20045;-83
2022/04/15 05:46:42;;;;;;;32.85;15.55;;;;;;;;;;5059895;28;20052;-84
2022/04/15 05:49:28;;;;;;;39.80;14.85;;;;;;;;;;5061638;28;20045;-86
2022/04/15 05:52:14;;;;;;;34.03;14.25;;;;;;;;;;5067992;28;20041;-84
2022/04/15 05:54:59;;;;;;;39.08;13.15;;;;;;;;;;5060368;28;20033;-83
2022/04/15 05:57:44;;;;;;;38.20;14.57;;;;;;;;;;5061800;28;20041;-83
2022/04/15 06:00:30;;;;;;;42.75;13.30;;;;;;;;;;5060448;28;20040;-84
2022/04/15 06:03:16;;;;;;;34.67;14.10;;;;;;;;;;5059163;28;20037;-83
2022/04/15 06:06:02;;;;;;;36.42;12.48;;;;;;;;;;5054793;28;20049;-84
2022/04/15 06:08:47;;;;;;;30.83;12.82;;;;;;;;;;5054445;28;20041;-84
2022/04/15 06:11:32;;;;;;;23.55;12.35;;;;;;;;;;5054675;28;20402;-84
2022/04/15 06:14:21;;;;;;;35.60;13.98;;;;;;;;;;5053737;28;20053;-84
2022/04/15 06:17:07;;;;;;;39.50;14.18;;;;;;;;;;5053473;28;20044;-85
2022/04/15 06:19:52;;;;;;;39.00;14.45;;;;;;;;;;5053882;28;20044;-85
2022/04/15 06:22:41;;;;;;;38.40;15.55;;;;;;;;;;5054064;28;20045;-84
2022/04/15 06:25:27;;;;;;;39.78;16.00;;;;;;;;;;5054312;28;20040;-85
2022/04/15 06:28:13;;;;;;;37.58;15.38;;;;;;;;;;5053483;28;20044;-85
2022/04/15 06:30:58;;;;;;;32.70;15.23;;;;;;;;;;5074793;28;20037;-83
2022/04/15 06:33:43;;;;;;;28.52;13.70;;;;;;;;;;5076933;28;20045;-85
2022/04/15 06:36:35;;;;;;;29.73;13.35;;;;;;;;;;5077231;28;20049;-83
2022/04/15 06:39:21;;;;;;;30.73;14.45;;;;;;;;;;5056253;28;20037;-83
2022/04/15 06:42:07;;;;;;;32.38;14.40;;;;;;;;;;5054893;28;20048;-88
2022/04/15 06:44:53;;;;;;;31.85;11.93;;;;;;;;;;5060543;28;20475;-82
2022/04/15 06:47:39;;;;;;;21.83;10.15;;;;;;;;;;5060496;28;20048;-86
2022/04/15 06:50:25;;;;;;;32.75;11.27;;;;;;;;;;5054792;28;20494;-86
2022/04/15 06:53:11;;;;;;;30.27;11.32;;;;;;;;;;5053757;28;20471;-85
2022/04/15 06:55:56;;;;;;;25.45;11.32;;;;;;;;;;5045351;28;20406;-84
2022/04/15 06:58:42;;;;;;;22.52;11.45;;;;;;;;;;5054080;28;20045;-83
2022/04/15 07:01:29;;;;;;;28.77;12.75;;;;;;;;;;5054374;28;20041;-85
2022/04/15 07:04:15;;;;;;;23.55;8.68;;;;;;;;;;5054390;28;20156;-85
2022/04/15 07:07:00;;;;;;;17.80;7.60;;;;;;;;;;5053904;28;20057;-86
2022/04/15 07:09:45;;;;;;;21.95;8.18;;;;;;;;;;5053972;28;20049;-85
2022/04/15 07:12:32;;;;;;;23.58;9.75;;;;;;;;;;5053545;28;20049;-85
2022/04/15 07:15:17;;;;;;;21.75;10.98;;;;;;;;;;5059439;28;20041;-85
2022/04/15 07:18:03;;;;;;;35.15;16.13;;;;;;;;;;5053213;28;20045;-85
2022/04/15 07:20:48;;;;;;;20.83;10.85;;;;;;;;;;5045203;28;20053;-85
2022/04/15 07:23:33;;;;;;;20.23;9.82;;;;;;;;;;5052982;28;20053;-84
2022/04/15 07:26:18;;;;;;;26.73;10.60;;;;;;;;;;5055386;28;20061;-85
2022/04/15 07:29:03;;;;;;;16.80;10.50;;;;;;;;;;5056653;28;20049;-85
2022/04/15 07:31:49;;;;;;;21.48;10.52;;;;;;;;;;5057599;28;20045;-84
2022/04/15 07:34:37;;;;;;;32.65;11.32;;;;;;;;;;5057038;28;20049;-83
2022/04/15 07:37:22;;;;;;;26.13;11.23;;;;;;;;;;5057907;28;20041;-84
2022/04/15 07:40:10;;;;;;;27.45;12.27;;;;;;;;;;5057981;28;20052;-82
2022/04/15 07:42:59;;;;;;;25.88;12.73;;;;;;;;;;5057381;28;20045;-82
2022/04/15 07:45:44;;;;;;;22.20;11.75;;;;;;;;;;5056964;28;20398;-81
2022/04/15 07:48:29;;;;;;;17.80;9.88;;;;;;;;;;5056973;28;20033;-81
2022/04/15 07:51:15;;;;;;;28.17;10.48;;;;;;;;;;5057025;28;20041;-81
2022/04/15 07:54:02;;;;;;;21.42;10.90;;;;;;;;;;5056742;28;20489;-81
2022/04/15 07:56:48;;;;;;;19.48;8.43;;;;;;;;;;5056747;28;20041;-81
2022/04/15 07:59:33;;;;;;;13.93;7.78;;;;;;;;;;5057020;28;20049;-80
2022/04/15 08:02:19;;;;;;;17.92;7.63;;;;;;;;;;5057295;28;20417;-81
2022/04/15 08:05:05;;;;;;;20.90;8.32;;;;;;;;;;5056877;28;20044;-81
2022/04/15 08:07:50;;;;;;;21.00;9.20;;;;;;;;;;5056934;28;20490;-80
2022/04/15 08:10:35;;;;;;;22.75;8.32;;;;;;;;;;5056669;28;20045;-82
2022/04/15 08:13:21;;;;;;;23.92;8.27;;;;;;;;;;5056542;28;20045;-81
2022/04/15 08:16:11;;;;;;;13.95;6.57;;;;;;;;;;5062921;28;20041;-81
2022/04/15 08:18:56;;;;;;;18.70;7.57;;;;;;;;;;5061756;28;20418;-80
2022/04/15 08:21:42;;;;;;;21.77;7.07;;;;;;;;;;5055805;28;20049;-81
2022/04/15 08:24:28;;;;;;;15.52;6.70;;;;;;;;;;5063230;28;20040;-82
2022/04/15 08:27:13;;;;;;;12.10;7.22;;;;;;;;;;5056031;28;20372;-81
2022/04/15 08:29:58;;;;;;;19.05;7.30;;;;;;;;;;5056530;28;20049;-76
2022/04/15 08:32:49;;;;;;;16.50;7.20;;;;;;;;;;5056084;28;20399;-77
2022/04/15 08:35:35;;;;;;;13.63;7.35;;;;;;;;;;5056333;28;20394;-77
2022/04/15 08:38:21;;;;;;;19.00;8.00;;;;;;;;;;5062964;28;20040;-78
2022/04/15 08:41:11;;;;;;;17.60;8.20;;;;;;;;;;5066637;28;20037;-78
2022/04/15 08:43:58;;;;;;;20.70;7.40;;;;;;;;;;5075207;28;20041;-76
2022/04/15 08:47:02;;;;;;;15.38;6.30;;;;;;;;;;5060135;28;20053;-77
2022/04/15 08:49:48;;;;;;;13.27;5.72;;;;;;;;;;5055375;28;20045;-78
2022/04/15 08:52:33;;;;;;;15.65;7.35;;;;;;;;;;5056350;28;20049;-77
2022/04/15 08:55:21;;;;;;;18.52;7.70;;;;;;;;;;5054739;28;20044;-76
2022/04/15 08:58:06;;;;;;;19.27;7.90;;;;;;;;;;5055820;28;20045;-75
2022/04/15 09:00:52;;;;;;;17.10;8.07;;;;;;;;;;5062535;28;20044;-75
2022/04/15 09:03:38;;;;;;;16.35;5.90;;;;;;;;;;5056108;28;20041;-75
2022/04/15 09:06:29;;;;;;;15.23;6.20;;;;;;;;;;5056132;28;20041;-76
2022/04/15 09:09:15;;;;;;;12.02;7.00;;;;;;;;;;5055455;28;20037;-76
2022/04/15 09:12:03;;;;;;;15.63;6.60;;;;;;;;;;5062188;28;20045;-76
2022/04/15 09:14:48;;;;;;;11.65;5.88;;;;;;;;;;5055586;28;20037;-75
2022/04/15 09:17:42;;;;;;;12.55;6.22;;;;;;;;;;5055235;28;20390;-76
2022/04/15 09:20:32;;;;;;;16.73;6.80;;;;;;;;;;5055322;28;20044;-74
2022/04/15 09:23:19;;;;;;;12.18;6.30;;;;;;;;;;5054433;28;20045;-74
2022/04/15 09:26:04;;;;;;;22.58;6.30;;;;;;;;;;5061858;28;20053;-74
2022/04/15 09:28:51;;;;;;;11.50;6.50;;;;;;;;;;5056207;28;20374;-76
2022/04/15 09:31:36;;;;;;;20.00;6.90;;;;;;;;;;5062071;28;20045;-77
2022/04/15 09:34:22;;;;;;;32.85;7.32;;;;;;;;;;5055068;28;20052;-81
2022/04/15 09:37:08;;;;;;;12.60;5.85;;;;;;;;;;5054764;28;20045;-79
2022/04/15 09:40:18;;;;;;;11.98;6.20;;;;;;;;;;5055531;28;20386;-79
2022/04/15 09:43:06;;;;;;;12.82;5.22;;;;;;;;;;5061458;28;20048;-77
2022/04/15 09:45:51;;;;;;;11.38;5.38;;;;;;;;;;5060777;28;20486;-78
2022/04/15 09:48:37;;;;;;;12.82;5.20;;;;;;;;;;5054234;28;20041;-79
2022/04/15 09:51:22;;;;;;;17.42;5.35;;;;;;;;;;5054774;28;20041;-77
2022/04/15 09:54:31;;;;;;;12.00;4.95;;;;;;;;;;5055180;28;20049;-77
2022/04/15 09:57:17;;;;;;;9.77;4.50;;;;;;;;;;5054647;28;20104;-77
2022/04/15 10:00:03;;;;;;;10.98;4.90;;;;;;;;;;5061226;28;20045;-76
2022/04/15 10:02:58;;;;;;;10.25;5.10;;;;;;;;;;5054361;28;20037;-76
2022/04/15 10:05:44;;;;;;;13.13;4.93;;;;;;;;;;5061209;28;20403;-77
2022/04/15 10:08:30;;;;;;;11.43;5.32;;;;;;;;;;5054322;28;20045;-75
2022/04/15 10:11:15;;;;;;;7.10;4.30;;;;;;;;;;5059922;28;20045;-76
2022/04/15 10:14:03;;;;;;;8.07;4.18;;;;;;;;;;5054166;28;20045;-76
2022/04/15 10:16:48;;;;;;;14.20;4.72;;;;;;;;;;5060779;28;20045;-76
2022/04/15 10:19:36;;;;;;;10.20;4.53;;;;;;;;;;5060899;28;20044;-74
2022/04/15 10:22:23;;;;;;;8.38;4.50;;;;;;;;;;5054326;28;20053;-75
2022/04/15 10:25:09;;;;;;;15.93;5.00;;;;;;;;;;5054359;28;20399;-74
2022/04/15 10:28:10;;;;;;;7.75;4.50;;;;;;;;;;5056074;28;20045;-74
2022/04/15 10:31:08;;;;;;;8.90;4.53;;;;;;;;;;5054369;28;20482;-77
2022/04/15 10:34:08;;;;;;;10.30;4.88;;;;;;;;;;5054029;28;20049;-76
2022/04/15 10:36:56;;;;;;;8.60;4.32;;;;;;;;;;5059966;28;20394;-74
2022/04/15 10:39:48;;;;;;;12.15;4.68;;;;;;;;;;5060829;28;20041;-76
2022/04/15 10:42:32;;;;;;;9.80;4.05;;;;;;;;;;5053990;28;20048;-76
2022/04/15 10:45:38;;;;;;;13.93;4.00;;;;;;;;;;5053648;28;20477;-75
2022/04/15 10:48:31;;;;;;;14.05;3.67;;;;;;;;;;5053599;28;20053;-75
2022/04/15 10:51:25;;;;;;;10.80;4.22;;;;;;;;;;5054147;28;20486;-76
2022/04/15 10:54:36;;;;;;;10.77;3.90;;;;;;;;;;5056232;28;20041;-79
2022/04/15 10:57:29;;;;;;;8.68;3.50;;;;;;;;;;5056346;28;20486;-78
2022/04/15 11:03:27;;;;;;;8.10;3.75;;;;;;;;;;5053574;28;20049;-74
2022/04/15 11:06:23;;;;;;;4.30;2.80;;;;;;;;;;5053386;28;20394;-75
2022/04/15 11:09:15;;;;;;;7.00;3.17;;;;;;;;;;5053720;28;20049;-76
2022/04/15 11:12:03;;;;;;;3.25;2.40;;;;;;;;;;5053176;28;20486;-75
2022/04/15 11:14:48;;;;;;;7.03;2.35;;;;;;;;;;5053560;28;20040;-77
2022/04/15 11:17:44;;;;;;;6.15;2.60;;;;;;;;;;5053327;28;20561;-77
2022/04/15 11:20:30;;;;;;;4.40;1.98;;;;;;;;;;5053061;28;20040;-78
2022/04/15 11:23:15;;;;;;;7.70;2.20;;;;;;;;;;5053571;28;20049;-76
2022/04/15 11:26:00;;;;;;;10.23;2.80;;;;;;;;;;5059914;28;20394;-77
2022/04/15 11:28:48;;;;;;;1.98;1.00;;;;;;;;;;5054179;28;20045;-76
2022/04/15 11:31:36;;;;;;;2.47;1.33;;;;;;;;;;5053363;28;20044;-76
2022/04/15 11:34:21;;;;;;;3.65;1.77;;;;;;;;;;5059561;28;20482;-76
2022/04/15 11:37:07;;;;;;;4.25;1.45;;;;;;;;;;5059949;28;20037;-76
2022/04/15 11:39:53;;;;;;;2.08;1.10;;;;;;;;;;5053237;28;20041;-76
2022/04/15 11:42:38;;;;;;;3.72;1.10;;;;;;;;;;5053185;28;20045;-76
2022/04/15 11:45:38;;;;;;;10.38;1.70;;;;;;;;;;5052860;28;20048;-76
2022/04/15 11:48:25;;;;;;;5.47;1.55;;;;;;;;;;5060159;28;20045;-76
2022/04/15 11:51:10;;;;;;;4.32;1.42;;;;;;;;;;5053463;28;20037;-78
2022/04/15 11:53:59;;;;;;;1.73;1.08;;;;;;;;;;5053079;28;20045;-75
2022/04/15 11:56:45;;;;;;;5.38;1.30;;;;;;;;;;5060416;28;20467;-76
2022/04/15 11:59:38;;;;;;;2.00;1.00;;;;;;;;;;5059561;28;20041;-75
2022/04/15 12:02:25;;;;;;;3.25;1.42;;;;;;;;;;5053533;28;20041;-76
2022/04/15 12:05:10;;;;;;;3.65;1.40;;;;;;;;;;5052695;28;20045;-77
2022/04/15 12:07:56;;;;;;;5.07;1.38;;;;;;;;;;5052721;28;20049;-76
2022/04/15 12:10:44;;;;;;;3.95;1.10;;;;;;;;;;5053009;28;20041;-76
2022/04/15 12:13:29;;;;;;;6.25;1.67;;;;;;;;;;5062128;28;20045;-77
2022/04/15 12:16:14;;;;;;;2.30;1.38;;;;;;;;;;5056346;28;20037;-77
2022/04/15 12:19:00;;;;;;;2.42;1.10;;;;;;;;;;5063337;28;20482;-77
2022/04/15 12:21:46;;;;;;;8.27;1.98;;;;;;;;;;5055555;28;20041;-77
2022/04/15 12:24:31;;;;;;;2.17;1.15;;;;;;;;;;5063522;28;20053;-76
2022/04/15 12:27:18;;;;;;;4.72;1.48;;;;;;;;;;5055945;28;20045;-77
2022/04/15 12:30:05;;;;;;;3.35;1.65;;;;;;;;;;5062414;28;20037;-76
2022/04/15 12:33:11;;;;;;;5.45;2.22;;;;;;;;;;5056076;28;20485;-77
2022/04/15 12:36:01;;;;;;;3.58;1.50;;;;;;;;;;5056210;28;20398;-76
2022/04/15 12:38:58;;;;;;;5.15;2.22;;;;;;;;;;5055970;28;20037;-77
2022/04/15 12:41:49;;;;;;;3.88;1.77;;;;;;;;;;5062818;28;20045;-75
2022/04/15 12:44:35;;;;;;;2.97;1.63;;;;;;;;;;5055857;28;20037;-76
2022/04/15 12:47:24;;;;;;;2.97;1.30;;;;;;;;;;5063732;28;20049;-75
2022/04/15 12:50:16;;;;;;;4.10;1.60;;;;;;;;;;5062901;28;20045;-77
2022/04/15 12:53:14;;;;;;;5.60;1.48;;;;;;;;;;5055699;28;20036;-77
2022/04/15 12:56:13;;;;;;;4.60;1.60;;;;;;;;;;5062415;28;20045;-76
2022/04/15 12:58:58;;;;;;;2.28;1.50;;;;;;;;;;5055847;28;20045;-77
2022/04/15 13:01:44;;;;;;;3.33;1.80;;;;;;;;;;5055931;28;20390;-76
2022/04/15 13:04:29;;;;;;;5.00;1.65;;;;;;;;;;5056377;28;20044;-76
2022/04/15 13:07:15;;;;;;;4.63;1.45;;;;;;;;;;5069576;28;20041;-77
2022/04/15 13:10:01;;;;;;;3.97;1.23;;;;;;;;;;5058139;28;20402;-77
2022/04/15 13:12:46;;;;;;;2.92;1.58;;;;;;;;;;5062653;28;20041;-75
2022/04/15 13:15:32;;;;;;;3.15;1.70;;;;;;;;;;5055654;28;20048;-83
2022/04/15 13:18:19;;;;;;;4.57;1.70;;;;;;;;;;5055147;28;20041;-78
2022/04/15 13:21:05;;;;;;;4.85;1.60;;;;;;;;;;5062165;28;20041;-77
2022/04/15 13:23:50;;;;;;;2.45;1.70;;;;;;;;;;5060910;28;20049;-77
2022/04/15 13:26:36;;;;;;;15.70;1.73;;;;;;;;;;5062055;28;20049;-78
2022/04/15 13:29:21;;;;;;;9.43;1.80;;;;;;;;;;5055286;28;20049;-77
2022/04/15 13:32:07;;;;;;;3.97;1.83;;;;;;;;;;5061754;28;20040;-78
2022/04/15 13:34:52;;;;;;;4.75;1.90;;;;;;;;;;5055041;28;20048;-77
2022/04/15 13:37:39;;;;;;;1.02;0.98;;;;;;;;;;5055132;28;20037;-76
2022/04/15 13:40:25;;;;;;;1.80;1.20;;;;;;;;;;5054992;28;20414;-77
2022/04/15 13:43:10;;;;;;;3.97;1.60;;;;;;;;;;5054644;28;20037;-78
2022/04/15 13:45:56;;;;;;;7.55;2.05;;;;;;;;;;5054609;28;20041;-77
2022/04/15 13:48:41;;;;;;;6.00;1.70;;;;;;;;;;5061632;28;20386;-77
2022/04/15 13:51:28;;;;;;;5.50;2.13;;;;;;;;;;5054665;28;20048;-77
2022/04/15 13:57:18;;;;;;;9.88;2.17;;;;;;;;;;5054866;28;20041;-78
2022/04/15 14:00:05;;;;;;;4.57;2.28;;;;;;;;;;5054670;28;20486;-78
2022/04/15 14:02:52;;;;;;;4.40;2.15;;;;;;;;;;5054461;28;20044;-78
2022/04/15 14:05:37;;;;;;;3.42;1.90;;;;;;;;;;5054213;28;20037;-78
2022/04/15 14:08:23;;;;;;;12.40;2.25;;;;;;;;;;5054237;28;20514;-76
2022/04/15 14:11:08;;;;;;;2.67;1.90;;;;;;;;;;5054309;28;20044;-77
2022/04/15 14:13:58;;;;;;;8.68;2.33;;;;;;;;;;5054169;28;20037;-77
2022/04/15 14:16:45;;;;;;;6.47;3.00;;;;;;;;;;5054392;28;20045;-78
2022/04/15 14:19:30;;;;;;;2.63;1.60;;;;;;;;;;5053993;28;20174;-78
2022/04/15 14:22:19;;;;;;;8.55;2.20;;;;;;;;;;5054092;28;20037;-77
2022/04/15 14:25:05;;;;;;;6.47;2.20;;;;;;;;;;5054282;28;20041;-78
2022/04/15 14:27:50;;;;;;;4.50;1.88;;;;;;;;;;5053659;28;20041;-77
2022/04/15 14:30:36;;;;;;;6.07;1.83;;;;;;;;;;5053938;28;20416;-77
2022/04/15 14:33:21;;;;;;;11.30;2.75;;;;;;;;;;5053933;28;20409;-77
2022/04/15 14:36:08;;;;;;;15.57;1.80;;;;;;;;;;5053937;28;20053;-78
2022/04/15 14:38:55;;;;;;;5.07;1.88;;;;;;;;;;5054086;28;20041;-78
2022/04/15 14:41:41;;;;;;;11.18;2.25;;;;;;;;;;5053714;28;20049;-77
2022/04/15 14:44:26;;;;;;;5.60;1.50;;;;;;;;;;5053721;28;20033;-77
2022/04/15 14:47:12;;;;;;;13.55;2.70;;;;;;;;;;5054122;28;20053;-77
2022/04/15 14:49:57;;;;;;;3.20;1.45;;;;;;;;;;5053922;28;20037;-76
2022/04/15 14:52:43;;;;;;;5.30;2.30;;;;;;;;;;5053647;28;20422;-77
2022/04/15 14:55:29;;;;;;;6.32;2.00;;;;;;;;;;5053523;28;20056;-77
2022/04/15 14:58:14;;;;;;;5.55;2.80;;;;;;;;;;5060519;28;20040;-77
2022/04/15 15:01:00;;;;;;;5.57;2.70;;;;;;;;;;5053677;28;20053;-76
2022/04/15 15:03:46;;;;;;;4.07;2.42;;;;;;;;;;5052784;28;20104;-76
2022/04/15 15:06:32;;;;;;;5.78;2.50;;;;;;;;;;5052150;28;20478;-78
2022/04/15 15:09:18;;;;;;;8.80;3.63;;;;;;;;;;5053219;28;20049;-78
2022/04/15 15:12:04;;;;;;;4.63;2.20;;;;;;;;;;5053920;28;20045;-77
2022/04/15 15:14:49;;;;;;;9.50;2.35;;;;;;;;;;5053857;28;20478;-78
2022/04/15 15:17:34;;;;;;;4.88;2.30;;;;;;;;;;5053670;28;20040;-77
2022/04/15 15:20:21;;;;;;;10.75;2.90;;;;;;;;;;5063399;28;20045;-77
2022/04/15 15:23:07;;;;;;;9.52;3.03;;;;;;;;;;5061936;28;20053;-75
2022/04/15 15:32:06;;;;;;;8.35;3.15;;;;;;;;;;5057965;28;20045;-75
2022/04/15 15:34:59;;;;;;;6.53;2.58;;;;;;;;;;5066603;28;20045;-76
2022/04/15 15:37:45;;;;;;;8.48;2.80;;;;;;;;;;5068890;28;20045;-76
2022/04/15 15:40:33;;;;;;;8.35;2.90;;;;;;;;;;5070782;28;20041;-77
2022/04/15 15:43:23;;;;;;;24.95;3.55;;;;;;;;;;5076576;28;20041;-76
2022/04/15 15:46:13;;;;;;;7.40;3.53;;;;;;;;;;5070852;28;20049;-76
2022/04/15 15:49:01;;;;;;;6.00;3.55;;;;;;;;;;5073764;28;20037;-77
2022/04/15 15:51:46;;;;;;;11.05;3.60;;;;;;;;;;5073076;28;20041;-77
2022/04/15 15:54:33;;;;;;;6.05;3.30;;;;;;;;;;5073766;28;20049;-76
2022/04/15 15:57:22;;;;;;;9.02;3.53;;;;;;;;;;5074396;28;20041;-77
2022/04/15 16:00:12;;;;;;;9.85;3.30;;;;;;;;;;5074836;28;20053;-78
2022/04/15 16:03:02;;;;;;;6.15;3.28;;;;;;;;;;5074502;28;20041;-76
2022/04/15 16:05:50;;;;;;;9.73;4.85;;;;;;;;;;5081162;28;20045;-77
2022/04/15 16:08:35;;;;;;;24.63;4.88;;;;;;;;;;5072836;28;20048;-76
2022/04/15 16:11:21;;;;;;;10.60;4.60;;;;;;;;;;5071972;28;20041;-76
2022/04/15 16:14:07;;;;;;;9.23;3.20;;;;;;;;;;5068599;28;20045;-77
2022/04/15 16:16:52;;;;;;;11.35;3.83;;;;;;;;;;5070401;28;20033;-75
2022/04/15 16:19:38;;;;;;;9.18;4.07;;;;;;;;;;5072234;28;20063;-77
2022/04/15 16:22:25;;;;;;;12.88;4.78;;;;;;;;;;5070824;28;20045;-77
2022/04/15 16:25:11;;;;;;;9.98;5.18;;;;;;;;;;5070337;28;20037;-77
2022/04/15 16:27:57;;;;;;;12.43;6.97;;;;;;;;;;5068447;28;20486;-76
2022/04/15 16:30:43;;;;;;;14.32;7.55;;;;;;;;;;5071911;28;20045;-77
2022/04/15 16:33:29;;;;;;;14.65;8.18;;;;;;;;;;5058043;28;20041;-77
2022/04/15 16:36:15;;;;;;;11.85;6.38;;;;;;;;;;5056584;28;20044;-77
2022/04/15 16:39:01;;;;;;;23.10;6.57;;;;;;;;;;5048031;28;20044;-75